sensor_id;sensor_type;location;lat;lon;timestamp;pressure;altitude;pressure_sealevel;temperature;humidity
44920;BME280;30655;53.094;6.072;2023-02-10T00:02:15;103500.75;;;2.23;98.61
44920;BME280;30655;53.094;6.072;2023-02-10T00:04:42;103422.88;;;1.82;98.08
44920;BME280;30655;53.094;6.072;2023-02-10T00:07:08;103460.72;;;1.95;98.61
44920;BME280;30655;53.094;6.072;2023-02-10T00:09:37;103497.69;;;2.17;98.69
44920;BME280;30655;53.094;6.072;2023-02-10T00:12:04;103455.13;;;1.89;98.53
44920;BME280;30655;53.094;6.072;2023-02-10T00:14:31;103501.66;;;2.13;98.82
44920;BME280;30655;53.094;6.072;2023-02-10T00:16:58;103503.59;;;2.11;98.15
44920;BME280;30655;53.094;6.072;2023-02-10T00:19:26;103474.59;;;1.99;98.59
44920;BME280;30655;53.094;6.072;2023-02-10T00:21:53;103492.41;;;2.08;98.56
44920;BME280;30655;53.094;6.072;2023-02-10T00:24:26;103497.28;;;2.12;98.56
44920;BME280;30655;53.094;6.072;2023-02-10T00:26:55;103498.28;;;2.11;98.77
44920;BME280;30655;53.094;6.072;2023-02-10T00:29:21;103506.41;;;2.10;98.72
44920;BME280;30655;53.094;6.072;2023-02-10T00:31:48;103517.94;;;2.10;98.84
44920;BME280;30655;53.094;6.072;2023-02-10T00:34:17;103481.50;;;1.92;98.80
44920;BME280;30655;53.094;6.072;2023-02-10T00:36:44;103515.25;;;2.10;98.90
44920;BME280;30655;53.094;6.072;2023-02-10T00:39:13;103512.59;;;2.10;99.07
44920;BME280;30655;53.094;6.072;2023-02-10T00:41:40;103438.50;;;1.67;98.52
44920;BME280;30655;53.094;6.072;2023-02-10T00:44:09;103512.59;;;2.10;98.82
44920;BME280;30655;53.094;6.072;2023-02-10T00:46:36;103516.94;;;2.11;98.57
44920;BME280;30655;53.094;6.072;2023-02-10T00:49:03;103501.72;;;1.94;99.43
44920;BME280;30655;53.094;6.072;2023-02-10T00:51:30;103530.59;;;2.08;98.44
44920;BME280;30655;53.094;6.072;2023-02-10T00:53:57;103535.22;;;2.06;98.72
44920;BME280;30655;53.094;6.072;2023-02-10T00:56:24;103369.28;;;1.02;98.56
44920;BME280;30655;53.094;6.072;2023-02-10T00:58:51;103530.03;;;2.05;98.63
44920;BME280;30655;53.094;6.072;2023-02-10T01:01:22;103531.69;;;2.06;98.79
44920;BME280;30655;53.094;6.072;2023-02-10T01:03:50;103510.53;;;1.95;99.10
44920;BME280;30655;53.094;6.072;2023-02-10T01:06:16;103528.19;;;2.05;98.90
44920;BME280;30655;53.094;6.072;2023-02-10T01:08:45;103533.53;;;2.05;98.91
44920;BME280;30655;53.094;6.072;2023-02-10T01:11:14;103499.47;;;1.90;99.04
44920;BME280;30655;53.094;6.072;2023-02-10T01:13:43;103499.88;;;1.95;99.89
44920;BME280;30655;53.094;6.072;2023-02-10T01:16:13;103527.91;;;2.08;99.84
44920;BME280;30655;53.094;6.072;2023-02-10T01:18:43;103528.06;;;2.07;99.75
44920;BME280;30655;53.094;6.072;2023-02-10T01:21:12;103499.19;;;1.93;99.48
44920;BME280;30655;53.094;6.072;2023-02-10T01:23:39;103527.22;;;2.06;99.54
44920;BME280;30655;53.094;6.072;2023-02-10T01:26:07;103522.72;;;2.07;99.71
44920;BME280;30655;53.094;6.072;2023-02-10T01:28:35;103505.66;;;1.90;100.00
44920;BME280;30655;53.094;6.072;2023-02-10T01:31:05;103536.91;;;2.07;99.78
44920;BME280;30655;53.094;6.072;2023-02-10T01:33:32;103524.44;;;1.98;99.82
44920;BME280;30655;53.094;6.072;2023-02-10T01:36:04;103531.44;;;1.99;99.60
44920;BME280;30655;53.094;6.072;2023-02-10T01:38:32;103535.53;;;2.03;99.82
44920;BME280;30655;53.094;6.072;2023-02-10T01:41:01;103539.16;;;2.02;99.52
44920;BME280;30655;53.094;6.072;2023-02-10T01:43:28;103504.84;;;1.80;99.37
44920;BME280;30655;53.094;6.072;2023-02-10T01:45:54;103542.09;;;1.99;99.97
44920;BME280;30655;53.094;6.072;2023-02-10T01:48:22;103540.44;;;1.98;99.62
44920;BME280;30655;53.094;6.072;2023-02-10T01:50:52;103546.75;;;1.97;99.79
44920;BME280;30655;53.094;6.072;2023-02-10T01:53:23;103538.06;;;1.95;99.40
44920;BME280;30655;53.094;6.072;2023-02-10T01:55:54;103538.06;;;1.95;99.18
44920;BME280;30655;53.094;6.072;2023-02-10T01:58:26;103528.41;;;1.85;99.47
44920;BME280;30655;53.094;6.072;2023-02-10T02:00:55;103544.41;;;1.94;99.49
44920;BME280;30655;53.094;6.072;2023-02-10T02:03:23;103552.53;;;1.93;99.50
44920;BME280;30655;53.094;6.072;2023-02-10T02:05:50;103540.75;;;1.86;99.26
44920;BME280;30655;53.094;6.072;2023-02-10T02:08:19;103535.72;;;1.83;99.34
44920;BME280;30655;53.094;6.072;2023-02-10T02:11:16;103544.97;;;1.88;99.48
44920;BME280;30655;53.094;6.072;2023-02-10T02:14:00;103552.97;;;1.88;99.89
44920;BME280;30655;53.094;6.072;2023-02-10T02:16:43;103537.66;;;1.90;99.92
44920;BME280;30655;53.094;6.072;2023-02-10T02:22:37;103547.22;;;1.83;100.00
44920;BME280;30655;53.094;6.072;2023-02-10T02:25:20;103512.84;;;1.70;100.00
44920;BME280;30655;53.094;6.072;2023-02-10T02:28:08;103540.22;;;1.82;99.78
44920;BME280;30655;53.094;6.072;2023-02-10T02:30:51;103545.84;;;1.79;99.91
44920;BME280;30655;53.094;6.072;2023-02-10T02:33:27;103536.00;;;1.80;99.75
44920;BME280;30655;53.094;6.072;2023-02-10T02:36:01;103540.91;;;1.74;100.00
44920;BME280;30655;53.094;6.072;2023-02-10T02:38:37;103538.81;;;1.78;99.81
44920;BME280;30655;53.094;6.072;2023-02-10T02:41:04;103541.50;;;1.78;100.00
44920;BME280;30655;53.094;6.072;2023-02-10T02:43:30;103541.31;;;1.80;100.00
44920;BME280;30655;53.094;6.072;2023-02-10T02:46:00;103545.69;;;1.81;99.63
44920;BME280;30655;53.094;6.072;2023-02-10T02:48:47;103493.97;;;1.45;100.00
44920;BME280;30655;53.094;6.072;2023-02-10T02:51:27;103532.38;;;1.71;100.00
44920;BME280;30655;53.094;6.072;2023-02-10T02:54:02;103524.50;;;1.69;99.89
44920;BME280;30655;53.094;6.072;2023-02-10T02:56:37;103521.69;;;1.71;99.51
44920;BME280;30655;53.094;6.072;2023-02-10T02:59:10;103537.69;;;1.81;100.00
44920;BME280;30655;53.094;6.072;2023-02-10T03:01:43;103499.84;;;1.58;99.81
44920;BME280;30655;53.094;6.072;2023-02-10T03:04:15;103530.09;;;1.76;99.47
44920;BME280;30655;53.094;6.072;2023-02-10T03:06:44;103529.13;;;1.77;99.83
44920;BME280;30655;53.094;6.072;2023-02-10T03:09:12;103543.84;;;1.81;100.00
44920;BME280;30655;53.094;6.072;2023-02-10T03:11:39;103533.75;;;1.75;99.69
44920;BME280;30655;53.094;6.072;2023-02-10T03:14:06;103524.25;;;1.63;99.73
44920;BME280;30655;53.094;6.072;2023-02-10T03:16:32;103534.03;;;1.82;99.96
44920;BME280;30655;53.094;6.072;2023-02-10T03:18:59;103454.63;;;1.19;100.00
44920;BME280;30655;53.094;6.072;2023-02-10T03:21:27;103541.91;;;1.83;100.00
44920;BME280;30655;53.094;6.072;2023-02-10T03:23:54;103363.44;;;0.79;100.00
44920;BME280;30655;53.094;6.072;2023-02-10T03:26:21;103537.25;;;1.85;100.00
44920;BME280;30655;53.094;6.072;2023-02-10T03:28:48;103536.25;;;1.86;100.00
44920;BME280;30655;53.094;6.072;2023-02-10T03:31:17;103544.41;;;1.85;100.00
44920;BME280;30655;53.094;6.072;2023-02-10T03:33:44;103529.81;;;1.89;100.00
44920;BME280;30655;53.094;6.072;2023-02-10T03:36:11;103536.97;;;1.88;100.00
44920;BME280;30655;53.094;6.072;2023-02-10T03:38:39;103533.72;;;1.85;100.00
44920;BME280;30655;53.094;6.072;2023-02-10T03:41:06;103547.63;;;1.88;100.00
44920;BME280;30655;53.094;6.072;2023-02-10T03:43:33;103549.47;;;1.88;100.00
44920;BME280;30655;53.094;6.072;2023-02-10T03:46:00;103552.97;;;1.88;100.00
44920;BME280;30655;53.094;6.072;2023-02-10T03:48:27;103553.94;;;1.87;100.00
44920;BME280;30655;53.094;6.072;2023-02-10T03:50:54;103463.16;;;1.33;100.00
44920;BME280;30655;53.094;6.072;2023-02-10T03:53:21;103553.09;;;1.87;100.00
44920;BME280;30655;53.094;6.072;2023-02-10T03:55:52;103424.78;;;1.06;100.00
44920;BME280;30655;53.094;6.072;2023-02-10T03:58:20;103417.31;;;1.10;100.00
44920;BME280;30655;53.094;6.072;2023-02-10T04:00:48;103532.75;;;1.86;100.00
44920;BME280;30655;53.094;6.072;2023-02-10T04:03:15;103531.22;;;1.83;100.00
44920;BME280;30655;53.094;6.072;2023-02-10T04:05:42;103529.94;;;1.87;100.00
44920;BME280;30655;53.094;6.072;2023-02-10T04:08:09;103516.78;;;1.76;100.00
44920;BME280;30655;53.094;6.072;2023-02-10T04:10:36;103492.44;;;1.52;100.00
44920;BME280;30655;53.094;6.072;2023-02-10T04:13:04;103554.09;;;1.86;100.00
44920;BME280;30655;53.094;6.072;2023-02-10T04:15:31;103551.28;;;1.87;100.00
44920;BME280;30655;53.094;6.072;2023-02-10T04:17:58;103550.56;;;1.85;100.00
44920;BME280;30655;53.094;6.072;2023-02-10T04:20:25;103511.91;;;1.62;100.00
44920;BME280;30655;53.094;6.072;2023-02-10T04:22:51;103457.00;;;1.22;100.00
44920;BME280;30655;53.094;6.072;2023-02-10T04:25:19;103533.31;;;1.80;100.00
44920;BME280;30655;53.094;6.072;2023-02-10T04:27:47;103525.34;;;1.70;100.00
44920;BME280;30655;53.094;6.072;2023-02-10T04:30:16;103536.69;;;1.82;100.00
44920;BME280;30655;53.094;6.072;2023-02-10T04:32:42;103533.31;;;1.80;100.00
44920;BME280;30655;53.094;6.072;2023-02-10T04:35:10;103529.00;;;1.79;100.00
44920;BME280;30655;53.094;6.072;2023-02-10T04:37:36;103530.09;;;1.76;100.00
44920;BME280;30655;53.094;6.072;2023-02-10T04:40:04;103482.34;;;1.46;100.00
44920;BME280;30655;53.094;6.072;2023-02-10T04:42:31;103534.59;;;1.76;100.00
44920;BME280;30655;53.094;6.072;2023-02-10T04:44:59;103537.25;;;1.76;100.00
44920;BME280;30655;53.094;6.072;2023-02-10T04:47:28;103547.78;;;1.77;100.00
44920;BME280;30655;53.094;6.072;2023-02-10T04:49:55;103534.91;;;1.72;100.00
44920;BME280;30655;53.094;6.072;2023-02-10T04:52:22;103551.84;;;1.81;100.00
44920;BME280;30655;53.094;6.072;2023-02-10T04:54:50;103546.53;;;1.81;100.00
44920;BME280;30655;53.094;6.072;2023-02-10T04:57:17;103516.94;;;1.65;100.00
44920;BME280;30655;53.094;6.072;2023-02-10T04:59:43;103548.22;;;1.82;100.00
44920;BME280;30655;53.094;6.072;2023-02-10T05:02:10;103518.75;;;1.64;100.00
44920;BME280;30655;53.094;6.072;2023-02-10T05:04:39;103537.13;;;1.77;100.00
44920;BME280;30655;53.094;6.072;2023-02-10T05:07:05;103474.78;;;1.32;100.00
44920;BME280;30655;53.094;6.072;2023-02-10T05:09:33;103553.41;;;1.84;100.00
44920;BME280;30655;53.094;6.072;2023-02-10T05:12:00;103554.25;;;1.84;100.00
44920;BME280;30655;53.094;6.072;2023-02-10T05:14:27;103537.13;;;1.77;100.00
44920;BME280;30655;53.094;6.072;2023-02-10T05:16:54;103554.25;;;1.84;100.00
44920;BME280;30655;53.094;6.072;2023-02-10T05:19:20;103552.56;;;1.83;100.00
44920;BME280;30655;53.094;6.072;2023-02-10T05:21:48;103541.06;;;1.73;100.00
44920;BME280;30655;53.094;6.072;2023-02-10T05:24:17;103543.03;;;1.71;100.00
44920;BME280;30655;53.094;6.072;2023-02-10T05:26:43;103552.84;;;1.80;100.00
44920;BME280;30655;53.094;6.072;2023-02-10T05:29:10;103552.84;;;1.80;100.00
44920;BME280;30655;53.094;6.072;2023-02-10T05:31:37;103547.78;;;1.77;100.00
44920;BME280;30655;53.094;6.072;2023-02-10T05:34:05;103560.84;;;1.80;100.00
44920;BME280;30655;53.094;6.072;2023-02-10T05:36:33;103534.06;;;1.62;100.00
44920;BME280;30655;53.094;6.072;2023-02-10T05:39:03;103564.34;;;1.81;100.00
44920;BME280;30655;53.094;6.072;2023-02-10T05:41:30;103550.06;;;1.72;100.00
44920;BME280;30655;53.094;6.072;2023-02-10T05:43:57;103519.78;;;1.54;100.00
44920;BME280;30655;53.094;6.072;2023-02-10T05:46:24;103485.31;;;1.33;100.00
44920;BME280;30655;53.094;6.072;2023-02-10T05:48:51;103516.13;;;1.45;100.00
44920;BME280;30655;53.094;6.072;2023-02-10T05:51:18;103571.22;;;1.83;100.00
44920;BME280;30655;53.094;6.072;2023-02-10T05:53:47;103567.16;;;1.79;100.00
44920;BME280;30655;53.094;6.072;2023-02-10T05:56:15;103530.69;;;1.60;100.00
44920;BME280;30655;53.094;6.072;2023-02-10T05:58:42;103568.56;;;1.83;100.00
44920;BME280;30655;53.094;6.072;2023-02-10T06:01:11;103531.84;;;1.58;100.00
44920;BME280;30655;53.094;6.072;2023-02-10T06:03:40;103568.16;;;1.78;100.00
44920;BME280;30655;53.094;6.072;2023-02-10T06:06:07;103530.16;;;1.57;100.00
44920;BME280;30655;53.094;6.072;2023-02-10T06:08:34;103564.34;;;1.81;100.00
44920;BME280;30655;53.094;6.072;2023-02-10T06:11:02;103573.19;;;1.81;100.00
44920;BME280;30655;53.094;6.072;2023-02-10T06:13:31;103569.69;;;1.81;100.00
44920;BME280;30655;53.094;6.072;2023-02-10T06:15:59;103567.84;;;1.81;100.00
44920;BME280;30655;53.094;6.072;2023-02-10T06:18:26;103566.88;;;1.82;100.00
44920;BME280;30655;53.094;6.072;2023-02-10T06:20:54;103523.13;;;1.56;100.00
44920;BME280;30655;53.094;6.072;2023-02-10T06:23:22;103556.09;;;1.74;100.00
44920;BME280;30655;53.094;6.072;2023-02-10T06:25:49;103570.53;;;1.81;100.00
44920;BME280;30655;53.094;6.072;2023-02-10T06:28:17;103570.53;;;1.81;100.00
44920;BME280;30655;53.094;6.072;2023-02-10T06:30:45;103547.28;;;1.64;100.00
44920;BME280;30655;53.094;6.072;2023-02-10T06:33:12;103579.50;;;1.80;100.00
44920;BME280;30655;53.094;6.072;2023-02-10T06:35:39;103572.50;;;1.79;100.00
44920;BME280;30655;53.094;6.072;2023-02-10T06:38:06;103563.69;;;1.69;100.00
44920;BME280;30655;53.094;6.072;2023-02-10T06:40:33;103574.16;;;1.80;100.00
44920;BME280;30655;53.094;6.072;2023-02-10T06:43:00;103590.16;;;1.80;100.00
44920;BME280;30655;53.094;6.072;2023-02-10T06:45:29;103588.50;;;1.79;100.00
44920;BME280;30655;53.094;6.072;2023-02-10T06:47:58;103528.22;;;1.49;100.00
44920;BME280;30655;53.094;6.072;2023-02-10T06:50:24;103582.75;;;1.74;100.00
44920;BME280;30655;53.094;6.072;2023-02-10T06:52:51;103588.78;;;1.76;100.00
44920;BME280;30655;53.094;6.072;2023-02-10T06:55:20;103566.91;;;1.63;100.00
44920;BME280;30655;53.094;6.072;2023-02-10T06:57:47;103590.75;;;1.74;100.00
44920;BME280;30655;53.094;6.072;2023-02-10T07:00:15;103579.94;;;1.66;100.00
44920;BME280;30655;53.094;6.072;2023-02-10T07:02:42;103565.78;;;1.56;100.00
44920;BME280;30655;53.094;6.072;2023-02-10T07:05:11;103604.22;;;1.63;100.00
44920;BME280;30655;53.094;6.072;2023-02-10T07:07:38;103601.00;;;1.69;100.00
44920;BME280;30655;53.094;6.072;2023-02-10T07:10:07;103568.75;;;1.53;100.00
44920;BME280;30655;53.094;6.072;2023-02-10T07:12:34;103596.78;;;1.66;100.00
44920;BME280;30655;53.094;6.072;2023-02-10T07:15:00;103581.09;;;1.54;100.00
44920;BME280;30655;53.094;6.072;2023-02-10T07:17:27;103512.53;;;1.08;100.00
44920;BME280;30655;53.094;6.072;2023-02-10T07:19:54;103567.06;;;1.42;100.00
44920;BME280;30655;53.094;6.072;2023-02-10T07:22:22;103604.22;;;1.63;100.00
44920;BME280;30655;53.094;6.072;2023-02-10T07:24:50;103609.56;;;1.72;100.00
44920;BME280;30655;53.094;6.072;2023-02-10T07:27:17;103525.13;;;1.25;100.00
44920;BME280;30655;53.094;6.072;2023-02-10T07:29:43;103613.47;;;1.78;100.00
44920;BME280;30655;53.094;6.072;2023-02-10T07:32:10;103559.34;;;1.49;100.00
44920;BME280;30655;53.094;6.072;2023-02-10T07:34:37;103597.75;;;1.75;100.00
44920;BME280;30655;53.094;6.072;2023-02-10T07:37:04;103572.38;;;1.61;100.00
44920;BME280;30655;53.094;6.072;2023-02-10T07:39:33;103608.13;;;1.88;100.00
44920;BME280;30655;53.094;6.072;2023-02-10T07:42:00;103557.25;;;1.52;100.00
44920;BME280;30655;53.094;6.072;2023-02-10T07:44:27;103614.84;;;1.92;100.00
44920;BME280;30655;53.094;6.072;2023-02-10T07:46:56;103595.22;;;1.83;100.00
44920;BME280;30655;53.094;6.072;2023-02-10T07:49:22;103599.28;;;1.87;100.00
44920;BME280;30655;53.094;6.072;2023-02-10T07:51:50;103620.72;;;2.05;100.00
44920;BME280;30655;53.094;6.072;2023-02-10T07:54:17;103623.97;;;2.08;100.00
44920;BME280;30655;53.094;6.072;2023-02-10T07:56:45;103629.00;;;2.11;100.00
44920;BME280;30655;53.094;6.072;2023-02-10T07:59:12;103627.72;;;2.15;100.00
44920;BME280;30655;53.094;6.072;2023-02-10T08:01:39;103620.13;;;2.21;100.00
44920;BME280;30655;53.094;6.072;2023-02-10T08:04:07;103621.38;;;2.26;100.00
44920;BME280;30655;53.094;6.072;2023-02-10T08:06:34;103591.22;;;2.16;100.00
44920;BME280;30655;53.094;6.072;2023-02-10T08:09:03;103616.72;;;2.38;100.00
44920;BME280;30655;53.094;6.072;2023-02-10T08:11:31;103610.78;;;2.44;100.00
44920;BME280;30655;53.094;6.072;2023-02-10T08:14:00;103612.84;;;2.50;100.00
44920;BME280;30655;53.094;6.072;2023-02-10T08:16:27;103612.13;;;2.57;100.00
44920;BME280;30655;53.094;6.072;2023-02-10T08:18:54;103602.69;;;2.63;100.00
44920;BME280;30655;53.094;6.072;2023-02-10T08:21:25;103606.44;;;2.70;100.00
44920;BME280;30655;53.094;6.072;2023-02-10T08:23:52;103580.63;;;2.61;100.00
44920;BME280;30655;53.094;6.072;2023-02-10T08:26:19;103602.19;;;2.77;100.00
44920;BME280;30655;53.094;6.072;2023-02-10T08:28:48;103596.41;;;2.82;100.00
44920;BME280;30655;53.094;6.072;2023-02-10T08:31:17;103597.50;;;2.89;100.00
44920;BME280;30655;53.094;6.072;2023-02-10T08:33:44;103602.38;;;2.93;100.00
44920;BME280;30655;53.094;6.072;2023-02-10T08:36:15;103584.94;;;2.89;100.00
44920;BME280;30655;53.094;6.072;2023-02-10T08:38:42;103591.31;;;3.06;100.00
44920;BME280;30655;53.094;6.072;2023-02-10T08:41:09;103607.59;;;3.13;100.00
44920;BME280;30655;53.094;6.072;2023-02-10T08:43:37;103604.47;;;3.17;100.00
44920;BME280;30655;53.094;6.072;2023-02-10T08:46:04;103607.00;;;3.19;100.00
44920;BME280;30655;53.094;6.072;2023-02-10T08:48:33;103514.84;;;2.60;100.00
44920;BME280;30655;53.094;6.072;2023-02-10T08:51:05;103609.06;;;3.25;100.00
44920;BME280;30655;53.094;6.072;2023-02-10T08:53:32;103608.38;;;3.23;100.00
44920;BME280;30655;53.094;6.072;2023-02-10T08:56:03;103575.16;;;3.08;100.00
44920;BME280;30655;53.094;6.072;2023-02-10T08:58:30;103595.69;;;3.25;100.00
44920;BME280;30655;53.094;6.072;2023-02-10T09:00:57;103566.53;;;3.14;100.00
44920;BME280;30655;53.094;6.072;2023-02-10T09:03:24;103605.31;;;3.35;100.00
44920;BME280;30655;53.094;6.072;2023-02-10T09:05:54;103605.16;;;3.37;100.00
44920;BME280;30655;53.094;6.072;2023-02-10T09:08:21;103604.84;;;3.40;100.00
44920;BME280;30655;53.094;6.072;2023-02-10T09:10:48;103600.59;;;3.47;100.00
44920;BME280;30655;53.094;6.072;2023-02-10T09:13:17;103594.91;;;3.50;100.00
44920;BME280;30655;53.094;6.072;2023-02-10T09:15:44;103599.91;;;3.63;100.00
44920;BME280;30655;53.094;6.072;2023-02-10T09:18:11;103606.28;;;3.70;100.00
44920;BME280;30655;53.094;6.072;2023-02-10T09:20:38;103562.84;;;3.50;100.00
44920;BME280;30655;53.094;6.072;2023-02-10T09:23:06;103594.06;;;3.67;100.00
44920;BME280;30655;53.094;6.072;2023-02-10T09:25:33;103610.31;;;3.92;100.00
44920;BME280;30655;53.094;6.072;2023-02-10T09:28:00;103608.31;;;3.94;100.00
44920;BME280;30655;53.094;6.072;2023-02-10T09:30:27;103516.72;;;3.48;100.00
44920;BME280;30655;53.094;6.072;2023-02-10T09:32:54;103623.34;;;4.12;100.00
44920;BME280;30655;53.094;6.072;2023-02-10T09:35:21;103614.50;;;4.20;100.00
44920;BME280;30655;53.094;6.072;2023-02-10T09:37:50;103598.25;;;4.13;100.00
44920;BME280;30655;53.094;6.072;2023-02-10T09:40:22;103598.88;;;4.33;100.00
44920;BME280;30655;53.094;6.072;2023-02-10T09:43:00;103601.22;;;4.36;100.00
44920;BME280;30655;53.094;6.072;2023-02-10T09:45:33;103603.09;;;4.44;100.00
44920;BME280;30655;53.094;6.072;2023-02-10T09:48:04;103597.38;;;4.39;100.00
44920;BME280;30655;53.094;6.072;2023-02-10T09:50:42;103609.66;;;4.49;100.00
44920;BME280;30655;53.094;6.072;2023-02-10T09:53:13;103584.88;;;4.47;100.00
44920;BME280;30655;53.094;6.072;2023-02-10T09:55:46;103584.19;;;4.45;100.00
44920;BME280;30655;53.094;6.072;2023-02-10T09:58:22;103591.81;;;4.66;100.00
44920;BME280;30655;53.094;6.072;2023-02-10T10:00:55;103600.91;;;4.73;100.00
44920;BME280;30655;53.094;6.072;2023-02-10T10:03:27;103593.03;;;4.71;100.00
44920;BME280;30655;53.094;6.072;2023-02-10T10:06:04;103580.97;;;4.75;100.00
44920;BME280;30655;53.094;6.072;2023-02-10T10:08:40;103568.91;;;4.71;100.00
44920;BME280;30655;53.094;6.072;2023-02-10T10:11:24;103609.84;;;4.98;100.00
44920;BME280;30655;53.094;6.072;2023-02-10T10:13:52;103617.38;;;4.94;100.00
44920;BME280;30655;53.094;6.072;2023-02-10T10:16:29;103625.94;;;4.98;100.00
44920;BME280;30655;53.094;6.072;2023-02-10T10:19:06;103598.47;;;5.04;100.00
44920;BME280;30655;53.094;6.072;2023-02-10T10:22:06;103457.19;;;4.06;100.00
44920;BME280;30655;53.094;6.072;2023-02-10T10:25:06;103482.41;;;4.37;100.00
44920;BME280;30655;53.094;6.072;2023-02-10T10:28:59;103574.38;;;5.12;100.00
44920;BME280;30655;53.094;6.072;2023-02-10T10:31:34;103615.31;;;5.46;100.00
44920;BME280;30655;53.094;6.072;2023-02-10T10:34:18;103579.41;;;5.31;100.00
44920;BME280;30655;53.094;6.072;2023-02-10T10:37:08;103630.91;;;5.75;100.00
44920;BME280;30655;53.094;6.072;2023-02-10T10:40:13;103434.59;;;4.74;100.00
44920;BME280;30655;53.094;6.072;2023-02-10T10:42:58;103627.09;;;6.02;100.00
44920;BME280;30655;53.094;6.072;2023-02-10T10:45:36;103561.31;;;5.90;100.00
44920;BME280;30655;53.094;6.072;2023-02-10T10:48:29;103500.28;;;5.51;100.00
44920;BME280;30655;53.094;6.072;2023-02-10T10:51:27;103505.31;;;5.62;100.00
44920;BME280;30655;53.094;6.072;2023-02-10T10:54:12;103415.84;;;5.23;100.00
44920;BME280;30655;53.094;6.072;2023-02-10T10:57:08;103495.22;;;5.81;100.00
44920;BME280;30655;53.094;6.072;2023-02-10T10:59:53;103583.50;;;6.47;100.00
44920;BME280;30655;53.094;6.072;2023-02-10T11:06:05;103538.16;;;6.44;100.00
44920;BME280;30655;53.094;6.072;2023-02-10T11:09:05;103610.16;;;6.87;100.00
44920;BME280;30655;53.094;6.072;2023-02-10T11:11:40;103385.56;;;5.70;100.00
44920;BME280;30655;53.094;6.072;2023-02-10T11:14:23;103370.28;;;5.70;100.00
44920;BME280;30655;53.094;6.072;2023-02-10T11:17:17;103370.59;;;5.75;100.00
44920;BME280;30655;53.094;6.072;2023-02-10T11:20:20;103567.13;;;7.18;100.00
44920;BME280;30655;53.094;6.072;2023-02-10T11:23:19;103475.34;;;6.76;100.00
44920;BME280;30655;53.094;6.072;2023-02-10T11:25:59;103531.81;;;7.21;100.00
44920;BME280;30655;53.094;6.072;2023-02-10T11:28:29;103547.47;;;7.41;100.00
44920;BME280;30655;53.094;6.072;2023-02-10T11:30:59;103563.66;;;7.55;100.00
44920;BME280;30655;53.094;6.072;2023-02-10T11:33:29;103563.00;;;7.53;100.00
44920;BME280;30655;53.094;6.072;2023-02-10T11:36:02;103571.41;;;7.73;100.00
44920;BME280;30655;53.094;6.072;2023-02-10T11:38:30;103561.00;;;7.70;100.00
44920;BME280;30655;53.094;6.072;2023-02-10T11:41:04;103557.13;;;7.87;100.00
44920;BME280;30655;53.094;6.072;2023-02-10T11:43:35;103572.09;;;8.04;100.00
44920;BME280;30655;53.094;6.072;2023-02-10T11:46:05;103574.16;;;8.17;100.00
44920;BME280;30655;53.094;6.072;2023-02-10T11:48:37;103558.47;;;8.20;99.97
44920;BME280;30655;53.094;6.072;2023-02-10T11:51:18;103379.41;;;7.14;97.41
44920;BME280;30655;53.094;6.072;2023-02-10T11:53:47;103550.28;;;8.29;98.45
44920;BME280;30655;53.094;6.072;2023-02-10T11:56:18;103548.91;;;8.33;97.15
44920;BME280;30655;53.094;6.072;2023-02-10T11:58:59;103540.09;;;8.39;96.02
44920;BME280;30655;53.094;6.072;2023-02-10T12:01:43;103566.03;;;8.40;95.55
44920;BME280;30655;53.094;6.072;2023-02-10T12:04:23;103549.75;;;8.48;94.36
44920;BME280;30655;53.094;6.072;2023-02-10T12:07:02;103545.75;;;8.44;94.43
44920;BME280;30655;53.094;6.072;2023-02-10T12:09:39;103517.41;;;8.33;92.57
44920;BME280;30655;53.094;6.072;2023-02-10T12:12:14;103545.13;;;8.42;92.67
44920;BME280;30655;53.094;6.072;2023-02-10T12:14:53;103543.63;;;8.39;91.33
44920;BME280;30655;53.094;6.072;2023-02-10T12:17:26;103528.47;;;8.38;92.79
44920;BME280;30655;53.094;6.072;2023-02-10T12:20:06;103524.84;;;8.46;92.99
44920;BME280;30655;53.094;6.072;2023-02-10T12:23:00;103483.22;;;8.34;92.96
44920;BME280;30655;53.094;6.072;2023-02-10T12:25:37;103534.91;;;8.73;91.86
44920;BME280;30655;53.094;6.072;2023-02-10T12:28:12;103446.63;;;8.10;90.60
44920;BME280;30655;53.094;6.072;2023-02-10T12:30:46;103507.31;;;8.71;90.46
44920;BME280;30655;53.094;6.072;2023-02-10T12:33:35;103470.03;;;8.39;89.44
44920;BME280;30655;53.094;6.072;2023-02-10T12:36:10;103480.41;;;8.56;90.44
44920;BME280;30655;53.094;6.072;2023-02-10T12:38:59;103420.31;;;8.27;89.54
44920;BME280;30655;53.094;6.072;2023-02-10T12:41:40;103421.34;;;8.26;90.37
44920;BME280;30655;53.094;6.072;2023-02-10T12:44:20;103501.22;;;8.84;87.38
44920;BME280;30655;53.094;6.072;2023-02-10T12:47:00;103511.88;;;8.92;87.42
44920;BME280;30655;53.094;6.072;2023-02-10T12:49:42;103406.00;;;8.41;88.03
44920;BME280;30655;53.094;6.072;2023-02-10T12:52:15;103489.97;;;9.23;89.66
44920;BME280;30655;53.094;6.072;2023-02-10T12:54:51;103302.34;;;8.43;86.81
44920;BME280;30655;53.094;6.072;2023-02-10T12:57:23;103322.25;;;8.91;88.38
44920;BME280;30655;53.094;6.072;2023-02-10T12:59:55;103481.84;;;10.41;86.88
44920;BME280;30655;53.094;6.072;2023-02-10T13:02:28;103473.88;;;11.00;86.07
44920;BME280;30655;53.094;6.072;2023-02-10T13:05:04;103399.75;;;11.01;84.01
44920;BME280;30655;53.094;6.072;2023-02-10T13:07:42;103413.28;;;11.40;81.96
44920;BME280;30655;53.094;6.072;2023-02-10T13:10:30;103451.75;;;11.82;77.81
44920;BME280;30655;53.094;6.072;2023-02-10T13:13:01;103437.75;;;11.98;80.66
44920;BME280;30655;53.094;6.072;2023-02-10T13:15:33;103458.31;;;12.19;79.29
44920;BME280;30655;53.094;6.072;2023-02-10T13:18:01;103456.44;;;12.19;72.06
44920;BME280;30655;53.094;6.072;2023-02-10T13:20:36;103370.09;;;11.58;76.36
44920;BME280;30655;53.094;6.072;2023-02-10T13:23:13;103389.66;;;11.74;76.03